Time;durP1;ratioP1;P1;durP2;ratioP2;P2;SDS_P1;SDS_P2;PMS_P1;PMS_P2;Temp;Humidity;BMP_temperature;BMP_pressure;BME280_temperature;BME280_humidity;BME280_pressure;Samples;Min_cycle;Max_cycle;Signal;HPM_P1;HPM_P2
2021/05/03 00:01:32;;;;;;;3.53;1.70;;;;;;;8.16;30.79;101749.59;3537950;40;20125;-74
2021/05/03 00:04:00;;;;;;;2.47;1.52;;;;;;;8.14;31.05;101746.09;3538593;40;20061;-74
2021/05/03 00:06:28;;;;;;;3.22;1.60;;;;;;;8.13;31.06;101738.03;3540040;40;20113;-74
2021/05/03 00:08:56;;;;;;;2.38;1.40;;;;;;;8.11;31.14;101740.84;3549344;40;20065;-74
2021/05/03 00:11:23;;;;;;;3.67;1.52;;;;;;;8.08;30.98;101731.94;3548011;40;20058;-74
2021/05/03 00:13:50;;;;;;;2.25;1.58;;;;;;;8.06;31.54;101734.81;3539523;40;20349;-74
2021/05/03 00:16:18;;;;;;;2.55;1.52;;;;;;;8.05;31.52;101729.44;3538474;40;20055;-74
2021/05/03 00:18:45;;;;;;;2.75;1.80;;;;;;;8.03;31.42;101739.56;3542764;40;20427;-74
2021/05/03 00:21:13;;;;;;;3.35;1.63;;;;;;;7.99;31.62;101738.84;3537188;40;20051;-74
2021/05/03 00:23:40;;;;;;;3.03;1.77;;;;;;;7.99;31.26;101746.16;3546129;40;20060;-74
2021/05/03 00:26:10;;;;;;;2.92;1.60;;;;;;;7.98;31.60;101736.25;3531966;40;20400;-74
2021/05/03 00:28:39;;;;;;;2.78;1.60;;;;;;;7.94;31.34;101738.28;3534459;40;20133;-74
2021/05/03 00:31:06;;;;;;;2.22;1.40;;;;;;;7.92;31.40;101736.59;3536518;40;20083;-74
2021/05/03 00:33:33;;;;;;;3.35;1.80;;;;;;;7.90;31.65;101741.28;3546958;40;20054;-74
2021/05/03 00:36:01;;;;;;;2.08;1.30;;;;;;;7.87;31.87;101742.34;3538895;40;20047;-74
2021/05/03 00:38:30;;;;;;;3.67;2.03;;;;;;;7.84;31.89;101734.34;3546177;40;20046;-74
2021/05/03 00:40:58;;;;;;;4.05;1.83;;;;;;;7.82;31.70;101741.72;3548912;40;20090;-74
2021/05/03 00:43:26;;;;;;;2.53;1.60;;;;;;;7.79;31.82;101736.47;3542734;40;20043;-74
2021/05/03 00:45:54;;;;;;;3.95;1.90;;;;;;;7.76;31.98;101733.94;3539227;40;20065;-74
2021/05/03 00:48:22;;;;;;;2.97;1.70;;;;;;;7.73;31.87;101729.56;3545056;40;20042;-73
2021/05/03 00:50:51;;;;;;;3.53;1.77;;;;;;;7.70;32.25;101745.22;3548695;40;20054;-75
2021/05/03 00:53:18;;;;;;;2.63;1.60;;;;;;;7.67;32.13;101740.81;3544652;40;20055;-74
2021/05/03 00:55:46;;;;;;;3.63;1.60;;;;;;;7.63;31.86;101739.25;3540331;40;20400;-75
2021/05/03 00:58:13;;;;;;;2.50;1.60;;;;;;;7.60;31.92;101736.72;3544358;40;20077;-74
2021/05/03 01:00:42;;;;;;;4.50;1.92;;;;;;;7.58;32.41;101735.03;3538968;40;20047;-75
2021/05/03 01:03:09;;;;;;;3.75;2.10;;;;;;;7.54;32.43;101739.81;3543418;40;20050;-74
2021/05/03 01:05:37;;;;;;;3.45;1.80;;;;;;;7.50;32.48;101739.09;3548591;40;20066;-74
2021/05/03 01:08:05;;;;;;;3.63;1.80;;;;;;;7.44;32.43;101739.47;3544691;40;20373;-74
2021/05/03 01:10:32;;;;;;;3.47;1.90;;;;;;;7.40;32.41;101734.31;3539212;40;20062;-74
2021/05/03 01:13:02;;;;;;;3.80;1.85;;;;;;;7.35;32.44;101731.84;3542661;40;20097;-74
2021/05/03 01:15:30;;;;;;;3.20;1.70;;;;;;;7.32;32.68;101733.91;3549170;40;20133;-74
2021/05/03 01:18:01;;;;;;;2.80;1.85;;;;;;;7.29;32.92;101731.34;3546093;40;20051;-74
2021/05/03 01:20:30;;;;;;;3.53;2.10;;;;;;;7.24;32.57;101733.47;3539142;40;20055;-74
2021/05/03 01:22:59;;;;;;;3.20;1.80;;;;;;;7.21;32.75;101729.06;3541043;40;20432;-74
2021/05/03 01:25:31;;;;;;;3.20;1.80;;;;;;;7.18;32.73;101740.13;3541440;40;20311;-74
2021/05/03 01:27:59;;;;;;;4.03;2.03;;;;;;;7.14;32.77;101740.41;3540954;40;20042;-74
2021/05/03 01:30:30;;;;;;;4.03;2.05;;;;;;;7.13;33.37;101744.09;3540394;40;20051;-74
2021/05/03 01:32:58;;;;;;;4.35;1.90;;;;;;;7.06;32.72;101736.28;3539995;40;20046;-74
2021/05/03 01:35:26;;;;;;;3.95;2.20;;;;;;;7.04;32.91;101742.75;3544192;40;20347;-74
2021/05/03 01:37:58;;;;;;;3.70;2.10;;;;;;;7.01;33.02;101740.19;3544214;40;20065;-74
2021/05/03 01:40:28;;;;;;;3.35;2.15;;;;;;;6.98;33.40;101741.25;3538937;40;20043;-74
2021/05/03 01:42:56;;;;;;;5.03;2.50;;;;;;;6.94;33.22;101745.09;3539177;40;20148;-74
2021/05/03 01:45:26;;;;;;;4.10;2.60;;;;;;;6.92;33.28;101741.59;3536267;40;20046;-73
2021/05/03 01:47:54;;;;;;;4.18;2.33;;;;;;;6.87;33.25;101738.25;3538976;40;20046;-73
2021/05/03 01:50:23;;;;;;;4.22;2.25;;;;;;;6.85;33.32;101748.34;3534707;40;20055;-74
2021/05/03 01:52:51;;;;;;;3.88;2.38;;;;;;;6.81;33.06;101743.19;3528367;40;20063;-75
2021/05/03 01:55:20;;;;;;;3.67;2.30;;;;;;;6.79;33.48;101745.97;3546368;40;20057;-73
2021/05/03 01:57:48;;;;;;;3.72;2.08;;;;;;;6.73;33.37;101747.22;3548770;40;20050;-74
2021/05/03 02:00:16;;;;;;;3.92;2.17;;;;;;;6.70;33.29;101750.09;3537325;40;20420;-74
2021/05/03 02:02:46;;;;;;;4.43;2.20;;;;;;;6.65;33.24;101751.31;3538680;40;20137;-74
2021/05/03 02:05:17;;;;;;;4.28;2.33;;;;;;;6.63;34.02;101755.97;3538629;40;20286;-74
2021/05/03 02:07:45;;;;;;;3.67;2.28;;;;;;;6.57;33.29;101761.75;3538138;40;20102;-74
2021/05/03 02:10:13;;;;;;;4.25;2.40;;;;;;;6.53;33.48;101755.59;3539603;40;20345;-73
2021/05/03 02:12:41;;;;;;;4.50;2.70;;;;;;;6.50;33.69;101763.91;3538922;40;20050;-74
2021/05/03 02:15:12;;;;;;;3.85;2.50;;;;;;;6.46;33.51;101758.72;3542680;40;20046;-73
2021/05/03 02:17:39;;;;;;;4.57;2.13;;;;;;;6.43;33.81;101764.31;3535819;40;20059;-74
2021/05/03 02:20:08;;;;;;;4.50;2.20;;;;;;;6.38;33.68;101764.59;3535848;40;20107;-74
2021/05/03 02:22:35;;;;;;;4.00;2.50;;;;;;;6.33;33.83;101769.41;3538545;40;20046;-74
2021/05/03 02:25:03;;;;;;;3.90;2.47;;;;;;;6.29;33.51;101756.94;3538717;40;20183;-74
2021/05/03 02:27:31;;;;;;;4.00;2.50;;;;;;;6.24;33.80;101762.63;3538438;40;20075;-73
2021/05/03 02:29:59;;;;;;;4.25;2.67;;;;;;;6.20;33.90;101758.31;3536974;40;20134;-74
2021/05/03 02:32:27;;;;;;;3.85;2.47;;;;;;;6.15;33.91;101774.00;3538260;40;20055;-74
2021/05/03 02:34:55;;;;;;;5.22;2.55;;;;;;;6.12;34.05;101778.69;3538508;40;20297;-74
2021/05/03 02:37:24;;;;;;;4.28;2.53;;;;;;;6.07;33.90;101773.50;3538143;40;20059;-73
2021/05/03 02:39:51;;;;;;;4.57;2.75;;;;;;;6.04;34.01;101772.78;3542958;40;20072;-74
2021/05/03 02:42:19;;;;;;;3.53;2.42;;;;;;;5.99;34.04;101778.47;3540145;40;20058;-74
2021/05/03 02:44:46;;;;;;;5.32;2.65;;;;;;;5.96;33.84;101767.75;3541633;40;20439;-74
2021/05/03 02:47:15;;;;;;;4.85;2.40;;;;;;;5.94;34.40;101777.81;3538510;40;20035;-74
2021/05/03 02:49:45;;;;;;;5.45;2.72;;;;;;;5.90;34.15;101773.53;3541036;40;20054;-74
2021/05/03 02:52:12;;;;;;;4.35;2.53;;;;;;;5.87;34.11;101768.25;3539130;40;20067;-73
2021/05/03 02:54:39;;;;;;;4.85;2.50;;;;;;;5.85;34.42;101762.00;3540677;40;20135;-74
2021/05/03 02:57:06;;;;;;;5.22;2.60;;;;;;;5.82;34.23;101763.06;3542357;40;20439;-73
2021/05/03 02:59:34;;;;;;;6.22;2.92;;;;;;;5.79;34.50;101765.03;3540129;40;20104;-73
2021/05/03 03:02:02;;;;;;;4.68;2.53;;;;;;;5.76;34.60;101751.66;3536893;40;20047;-74
2021/05/03 03:04:30;;;;;;;3.83;2.47;;;;;;;5.74;34.54;101756.28;3539112;40;20054;-73
2021/05/03 03:06:58;;;;;;;5.07;2.58;;;;;;;5.70;34.51;101750.13;3540172;40;20071;-73
2021/05/03 03:09:25;;;;;;;4.43;2.70;;;;;;;5.66;34.36;101753.06;3538721;40;20055;-73
2021/05/03 03:11:52;;;;;;;5.97;2.80;;;;;;;5.65;34.81;101754.03;3540976;40;20297;-73
2021/05/03 03:14:20;;;;;;;4.53;2.60;;;;;;;5.59;34.52;101753.38;3537155;40;20062;-73
2021/05/03 03:16:47;;;;;;;4.00;2.50;;;;;;;5.57;34.40;101747.16;3542393;40;20074;-73
2021/05/03 03:19:14;;;;;;;6.20;3.35;;;;;;;5.55;34.51;101746.34;3537159;40;20059;-73
2021/05/03 03:21:43;;;;;;;6.28;2.63;;;;;;;5.54;34.93;101746.44;3536775;40;20156;-73
2021/05/03 03:24:11;;;;;;;4.70;2.50;;;;;;;5.50;35.04;101748.44;3536989;40;20393;-73
2021/05/03 03:26:41;;;;;;;4.47;2.35;;;;;;;5.48;35.14;101752.19;3541403;40;20057;-73
2021/05/03 03:29:08;;;;;;;5.15;2.80;;;;;;;5.44;34.69;101758.66;3538650;40;20047;-72
2021/05/03 03:31:35;;;;;;;4.95;2.60;;;;;;;5.40;34.89;101759.81;3543460;40;20058;-72
2021/05/03 03:34:02;;;;;;;4.28;2.20;;;;;;;5.38;34.73;101757.16;3536935;40;20050;-73
2021/05/03 03:36:33;;;;;;;3.97;2.65;;;;;;;5.32;34.82;101754.75;3542779;40;20312;-73
2021/05/03 03:39:21;;;;;;;4.10;2.60;;;;;;;5.30;34.95;101763.94;3539218;40;20061;-73
2021/05/03 03:41:52;;;;;;;4.10;2.50;;;;;;;5.26;35.06;101768.63;3543860;40;20051;-73
2021/05/03 03:44:25;;;;;;;3.88;2.35;;;;;;;5.22;34.94;101758.88;3537421;40;20078;-73
2021/05/03 03:46:57;;;;;;;4.35;2.58;;;;;;;5.19;35.07;101756.31;3539930;40;20076;-72
2021/05/03 03:49:44;;;;;;;3.65;2.42;;;;;;;5.14;35.22;101763.81;3529954;40;20083;-73
2021/05/03 03:52:32;;;;;;;4.25;2.40;;;;;;;5.08;35.18;101753.28;3530517;40;20057;-73
2021/05/03 03:55:20;;;;;;;4.72;2.78;;;;;;;5.06;35.58;101749.75;3531248;40;20298;-73
2021/05/03 03:58:08;;;;;;;4.95;2.58;;;;;;;5.01;35.25;101740.97;3530754;40;20043;-73
2021/05/03 04:00:55;;;;;;;4.28;2.30;;;;;;;4.99;35.39;101737.44;3535974;40;20045;-73
2021/05/03 04:03:47;;;;;;;3.90;2.45;;;;;;;4.97;35.50;101740.22;3529827;40;20059;-72
2021/05/03 04:06:42;;;;;;;5.97;2.88;;;;;;;4.94;35.73;101748.50;3534063;40;20059;-72
2021/05/03 04:09:36;;;;;;;5.45;2.72;;;;;;;4.91;35.26;101745.97;3536979;40;20038;-73
2021/05/03 04:12:44;;;;;;;5.20;2.40;;;;;;;4.88;35.42;101740.69;3544103;40;20144;-72
2021/05/03 04:21:52;;;;;;;3.97;2.58;;;;;;;4.79;35.96;101752.84;3539254;40;20057;-72
2021/05/03 04:24:43;;;;;;;5.40;3.10;;;;;;;4.78;35.97;101750.19;3549283;40;20058;-72
2021/05/03 04:27:31;;;;;;;5.10;2.60;;;;;;;4.78;36.33;101748.38;3541120;40;20432;-74
2021/05/03 04:30:19;;;;;;;4.82;2.75;;;;;;;4.79;35.85;101754.66;3538143;40;20047;-73
2021/05/03 04:33:06;;;;;;;5.30;2.63;;;;;;;4.79;35.97;101751.97;3539466;40;20323;-74
2021/05/03 04:35:53;;;;;;;3.85;2.67;;;;;;;4.79;36.29;101752.84;3539712;40;20435;-73
2021/05/03 04:38:41;;;;;;;5.03;2.95;;;;;;;4.80;36.16;101757.31;3541078;40;20063;-73
2021/05/03 04:41:28;;;;;;;4.80;2.80;;;;;;;4.81;36.07;101759.06;3541099;40;20395;-73
2021/05/03 04:44:16;;;;;;;5.85;3.05;;;;;;;4.82;35.88;101755.41;3549261;40;20110;-71
2021/05/03 04:47:03;;;;;;;5.65;2.80;;;;;;;4.83;36.50;101753.59;3537955;40;20042;-73
2021/05/03 04:50:08;;;;;;;4.40;2.60;;;;;;;4.87;37.24;101760.59;3533740;40;20323;-73
2021/05/03 04:52:55;;;;;;;6.20;2.80;;;;;;;4.85;36.48;101759.81;3540677;40;20037;-73
2021/05/03 04:55:43;;;;;;;4.85;2.78;;;;;;;4.88;36.36;101759.66;3539427;40;20062;-73
2021/05/03 04:58:30;;;;;;;4.80;2.67;;;;;;;4.92;36.38;101758.56;3539118;40;20415;-73
2021/05/03 05:01:18;;;;;;;5.97;2.95;;;;;;;4.98;36.86;101757.38;3539127;40;20043;-73
2021/05/03 05:04:06;;;;;;;5.45;3.50;;;;;;;5.01;36.75;101750.00;3537135;40;20387;-73
2021/05/03 05:06:56;;;;;;;4.97;2.80;;;;;;;5.10;36.74;101762.22;3534868;40;20062;-74
2021/05/03 05:09:43;;;;;;;4.38;2.70;;;;;;;5.17;37.04;101759.13;3549302;40;20042;-73
2021/05/03 05:12:30;;;;;;;6.07;3.08;;;;;;;5.28;37.21;101760.41;3544341;40;20054;-73
2021/05/03 05:15:18;;;;;;;5.40;2.92;;;;;;;5.38;37.22;101757.16;3540195;40;20065;-73
2021/05/03 05:18:07;;;;;;;5.85;3.20;;;;;;;5.55;37.79;101753.63;3543653;40;20042;-73
2021/05/03 05:20:34;;;;;;;4.47;3.03;;;;;;;5.76;38.43;101763.34;3537679;40;20092;-73
2021/05/03 05:23:04;;;;;;;4.38;2.80;;;;;;;6.07;38.81;101759.06;3541907;40;20054;-73
2021/05/03 05:25:33;;;;;;;5.78;3.10;;;;;;;6.39;38.85;101762.75;3538806;40;20051;-73
2021/05/03 05:28:15;;;;;;;5.68;3.30;;;;;;;6.75;38.55;101769.72;3536206;40;20069;-72
2021/05/03 05:31:03;;;;;;;5.25;3.13;;;;;;;7.15;38.01;101767.53;3544292;40;20039;-75
2021/05/03 05:33:39;;;;;;;5.90;3.17;;;;;;;7.48;37.49;101768.28;3539293;40;20050;-73
2021/05/03 05:36:26;;;;;;;5.18;3.05;;;;;;;7.74;36.81;101771.28;3536273;40;20060;-74
2021/05/03 05:39:13;;;;;;;6.63;3.00;;;;;;;7.94;36.78;101759.19;3539420;40;20054;-74
2021/05/03 05:41:53;;;;;;;4.88;2.97;;;;;;;8.09;36.03;101771.88;3542585;40;20046;-74
2021/05/03 05:44:23;;;;;;;4.25;2.92;;;;;;;8.19;35.73;101764.88;3540686;40;20073;-74
2021/05/03 05:47:10;;;;;;;5.20;2.92;;;;;;;8.25;35.40;101764.50;3542877;40;20039;-74
2021/05/03 05:49:59;;;;;;;5.70;3.30;;;;;;;8.31;35.39;101760.53;3540504;40;20053;-74
2021/05/03 05:52:50;;;;;;;5.07;3.10;;;;;;;8.31;35.22;101758.69;3538062;40;20049;-74
2021/05/03 05:55:38;;;;;;;4.95;2.97;;;;;;;8.36;35.33;101758.38;3540639;40;20043;-74
2021/05/03 05:58:25;;;;;;;5.10;2.85;;;;;;;8.38;35.16;101765.50;3546769;40;20046;-74
2021/05/03 06:01:12;;;;;;;6.45;3.10;;;;;;;8.40;35.20;101749.00;3541945;40;20058;-73
2021/05/03 06:03:59;;;;;;;5.97;3.00;;;;;;;8.41;35.04;101746.19;3541442;40;20074;-74
2021/05/03 06:06:47;;;;;;;6.38;3.55;;;;;;;8.44;34.94;101742.44;3537947;40;20047;-74
2021/05/03 06:09:34;;;;;;;4.65;3.00;;;;;;;8.45;34.88;101752.38;3542703;40;20078;-74
2021/05/03 06:12:22;;;;;;;6.22;3.50;;;;;;;8.46;34.96;101757.75;3538495;40;20312;-74
2021/05/03 06:15:10;;;;;;;5.45;3.17;;;;;;;8.48;34.98;101755.78;3546968;40;20062;-74
2021/05/03 06:17:57;;;;;;;5.25;3.45;;;;;;;8.51;34.94;101754.72;3540002;40;20082;-74
2021/05/03 06:20:44;;;;;;;6.75;3.38;;;;;;;8.54;35.02;101763.59;3548379;40;20049;-73
2021/05/03 06:23:33;;;;;;;6.78;3.63;;;;;;;8.60;34.98;101763.19;3543327;40;20062;-73
2021/05/03 06:26:20;;;;;;;4.72;3.50;;;;;;;8.66;35.01;101764.63;3528843;40;20067;-74
2021/05/03 06:29:08;;;;;;;6.03;4.07;;;;;;;8.72;35.22;101766.13;3541331;40;20087;-74
2021/05/03 06:31:36;;;;;;;5.80;3.30;;;;;;;8.80;35.21;101766.50;3534368;40;20055;-73
2021/05/03 06:34:03;;;;;;;5.45;3.35;;;;;;;8.92;35.37;101761.09;3538209;40;20065;-73
2021/05/03 06:36:30;;;;;;;7.03;3.70;;;;;;;9.10;35.53;101759.03;3537663;40;20067;-73
2021/05/03 06:39:18;;;;;;;5.05;3.53;;;;;;;9.42;35.90;101765.06;3541649;40;20128;-75
2021/05/03 06:42:06;;;;;;;6.95;3.80;;;;;;;9.72;35.66;101765.75;3537677;40;20333;-74
2021/05/03 06:44:35;;;;;;;5.38;3.40;;;;;;;9.98;35.24;101761.22;3538390;40;20066;-74
2021/05/03 06:47:02;;;;;;;6.13;3.72;;;;;;;10.18;34.63;101758.97;3540746;40;20388;-74
2021/05/03 06:49:30;;;;;;;4.80;3.30;;;;;;;10.31;34.30;101757.97;3536753;40;20054;-74
2021/05/03 06:51:57;;;;;;;6.57;3.40;;;;;;;10.41;34.01;101761.81;3533998;40;20050;-73
2021/05/03 06:54:26;;;;;;;5.05;3.45;;;;;;;10.49;33.70;101759.41;3538217;40;20129;-74
2021/05/03 06:56:54;;;;;;;5.55;3.58;;;;;;;10.53;33.69;101762.81;3537216;40;20113;-74
2021/05/03 06:59:23;;;;;;;5.03;3.72;;;;;;;10.56;33.72;101757.09;3539439;40;20066;-73
2021/05/03 07:01:51;;;;;;;6.05;3.50;;;;;;;10.61;33.86;101752.19;3535285;40;20050;-73
2021/05/03 07:04:19;;;;;;;5.43;3.60;;;;;;;10.71;34.01;101747.75;3542160;40;20120;-73
2021/05/03 07:06:46;;;;;;;5.47;3.20;;;;;;;10.82;34.16;101756.06;3536253;40;20099;-73
2021/05/03 07:09:14;;;;;;;5.95;3.60;;;;;;;10.98;33.90;101750.38;3542467;40;20432;-73
2021/05/03 07:11:44;;;;;;;5.50;3.42;;;;;;;11.14;33.80;101755.59;3542799;40;20431;-73
2021/05/03 07:14:12;;;;;;;5.10;3.33;;;;;;;11.29;33.47;101751.69;3537861;40;20137;-72
2021/05/03 07:16:41;;;;;;;5.47;3.70;;;;;;;11.44;33.57;101738.72;3535370;40;20039;-74
2021/05/03 07:19:08;;;;;;;5.18;3.38;;;;;;;11.60;33.39;101744.78;3542872;40;20085;-73
2021/05/03 07:21:37;;;;;;;4.97;3.15;;;;;;;11.76;33.00;101755.44;3545736;40;20063;-73
2021/05/03 07:24:05;;;;;;;4.72;3.30;;;;;;;11.90;32.66;101752.50;3542042;40;20435;-73
2021/05/03 07:26:34;;;;;;;4.78;3.10;;;;;;;12.03;32.54;101745.94;3532577;40;20047;-74
2021/05/03 07:29:02;;;;;;;4.47;3.20;;;;;;;12.18;32.22;101751.25;3536547;40;20419;-73
2021/05/03 07:31:30;;;;;;;6.90;3.47;;;;;;;12.28;32.08;101747.63;3535967;40;20054;-74
2021/05/03 07:33:58;;;;;;;4.45;3.20;;;;;;;12.39;31.94;101744.03;3538046;40;20411;-73
2021/05/03 07:36:25;;;;;;;5.63;3.55;;;;;;;12.48;31.69;101740.56;3537768;40;20064;-73
2021/05/03 07:38:54;;;;;;;5.20;3.28;;;;;;;12.58;31.64;101746.19;3541730;40;20062;-73
2021/05/03 07:41:22;;;;;;;4.70;3.08;;;;;;;12.67;31.24;101740.84;3538196;40;20557;-73
2021/05/03 07:43:49;;;;;;;5.20;3.20;;;;;;;12.76;31.07;101736.44;3531331;40;20091;-72
2021/05/03 07:46:24;;;;;;;4.68;2.83;;;;;;;12.86;30.87;101731.94;3535573;40;20087;-72
2021/05/03 07:48:52;;;;;;;5.05;2.63;;;;;;;12.92;30.74;101731.50;3542263;40;20403;-72
2021/05/03 07:51:20;;;;;;;5.00;2.78;;;;;;;13.00;30.29;101745.47;3534401;40;20051;-73
2021/05/03 07:53:52;;;;;;;4.72;2.75;;;;;;;13.08;30.53;101737.47;3545149;40;20301;-72
2021/05/03 07:56:20;;;;;;;4.20;2.65;;;;;;;13.13;30.16;101729.69;3540691;40;20063;-73
2021/05/03 07:58:50;;;;;;;5.20;3.00;;;;;;;13.22;30.03;101744.53;3543308;40;20128;-73
2021/05/03 08:01:18;;;;;;;4.65;2.80;;;;;;;13.28;29.84;101735.78;3536420;40;20125;-72
2021/05/03 08:03:46;;;;;;;5.00;3.00;;;;;;;13.33;29.85;101727.16;3540725;40;20073;-72
2021/05/03 08:06:14;;;;;;;4.82;3.13;;;;;;;13.39;29.78;101727.50;3543551;40;20046;-72
2021/05/03 08:08:43;;;;;;;5.25;3.15;;;;;;;13.47;29.48;101726.84;3541053;40;20087;-72
2021/05/03 08:11:13;;;;;;;6.25;3.30;;;;;;;13.53;29.48;101718.06;3541995;40;20140;-72
2021/05/03 08:13:43;;;;;;;3.70;2.42;;;;;;;13.59;29.07;101727.66;3533151;40;20051;-72
2021/05/03 08:16:16;;;;;;;4.47;2.67;;;;;;;13.62;29.37;101714.53;3533789;40;20062;-72
2021/05/03 08:18:45;;;;;;;4.40;2.60;;;;;;;13.69;29.02;101710.25;3539916;40;20063;-72
2021/05/03 08:21:13;;;;;;;4.18;2.47;;;;;;;13.73;28.68;101703.50;3538249;40;20087;-72
2021/05/03 08:23:42;;;;;;;4.82;2.60;;;;;;;13.80;28.68;101710.22;3531760;40;20042;-72
2021/05/03 08:26:10;;;;;;;5.00;2.40;;;;;;;13.86;28.53;101704.22;3541566;40;20050;-72
2021/05/03 08:28:40;;;;;;;3.83;2.33;;;;;;;13.91;28.56;101703.81;3537750;40;20053;-72
2021/05/03 08:31:07;;;;;;;4.75;2.65;;;;;;;13.98;28.18;101704.16;3537551;40;20039;-72
2021/05/03 08:33:35;;;;;;;5.22;2.58;;;;;;;14.03;28.34;101708.25;3538531;40;20101;-72
2021/05/03 08:36:04;;;;;;;4.43;2.35;;;;;;;14.10;27.84;101703.94;3534027;40;20090;-73
2021/05/03 08:38:32;;;;;;;3.45;2.20;;;;;;;14.15;27.84;101703.56;3539618;40;20136;-73
2021/05/03 08:41:02;;;;;;;4.13;2.15;;;;;;;14.21;27.83;101701.13;3545506;40;20058;-73
2021/05/03 08:43:32;;;;;;;3.90;2.30;;;;;;;14.27;27.53;101702.44;3538165;40;20066;-73
2021/05/03 08:46:00;;;;;;;3.88;2.25;;;;;;;14.34;27.39;101697.25;3539752;40;20081;-73
2021/05/03 08:48:34;;;;;;;4.25;2.60;;;;;;;14.39;27.06;101693.13;3544830;40;20039;-72
2021/05/03 08:51:11;;;;;;;4.15;2.55;;;;;;;14.46;27.03;101696.19;3537426;40;20132;-72
2021/05/03 08:53:42;;;;;;;4.38;2.65;;;;;;;14.51;27.13;101680.97;3541124;40;20137;-72
2021/05/03 08:56:11;;;;;;;4.70;2.75;;;;;;;14.58;26.59;101684.03;3540416;40;20057;-74
2021/05/03 08:58:41;;;;;;;4.75;2.58;;;;;;;14.60;27.17;101688.41;3543917;40;20133;-75
2021/05/03 09:01:08;;;;;;;4.45;2.65;;;;;;;14.66;26.65;101686.97;3539768;40;20055;-75
2021/05/03 09:03:41;;;;;;;5.10;2.58;;;;;;;14.73;26.41;101681.81;3539960;40;20133;-73
2021/05/03 09:06:11;;;;;;;5.85;2.65;;;;;;;14.79;26.65;101681.28;3541738;40;20054;-76
2021/05/03 09:08:39;;;;;;;4.40;2.42;;;;;;;14.86;26.25;101685.22;3538238;40;20050;-76
2021/05/03 09:11:06;;;;;;;4.07;2.65;;;;;;;14.90;25.95;101671.00;3539567;40;20051;-74
2021/05/03 09:13:36;;;;;;;5.35;2.60;;;;;;;14.94;25.95;101655.94;3544574;40;20087;-74
2021/05/03 09:16:15;;;;;;;5.78;3.05;;;;;;;15.01;25.27;101659.88;3540204;40;20086;-76
2021/05/03 09:18:43;;;;;;;4.45;2.92;;;;;;;14.99;25.57;101650.88;3535841;40;20055;-77
2021/05/03 09:21:19;;;;;;;4.85;2.97;;;;;;;15.05;24.37;101657.72;3533670;40;20161;-75
2021/05/03 09:24:01;;;;;;;5.32;3.28;;;;;;;15.07;24.23;101651.03;3541919;40;20051;-74
2021/05/03 09:26:34;;;;;;;4.47;2.72;;;;;;;15.07;24.84;101647.41;3539604;40;20058;-74
2021/05/03 09:29:32;;;;;;;4.10;2.90;;;;;;;15.03;24.57;101641.31;3542758;40;20069;-75
2021/05/03 09:32:02;;;;;;;4.97;3.17;;;;;;;15.07;24.92;101641.88;3537150;40;20043;-75
2021/05/03 09:34:31;;;;;;;4.85;2.83;;;;;;;15.11;25.10;101639.72;3540220;40;20090;-74
2021/05/03 09:37:19;;;;;;;4.70;3.00;;;;;;;15.13;24.42;101640.47;3542883;40;20061;-76
2021/05/03 09:40:03;;;;;;;4.88;2.88;;;;;;;15.16;24.59;101638.28;3540926;40;20389;-73
2021/05/03 09:42:53;;;;;;;5.18;3.20;;;;;;;15.17;24.62;101634.50;3540148;40;20422;-75
2021/05/03 09:45:22;;;;;;;6.43;2.80;;;;;;;15.19;24.74;101635.25;3538891;40;20050;-72
2021/05/03 09:47:55;;;;;;;4.82;3.00;;;;;;;15.23;24.76;101631.16;3545304;40;20078;-74
2021/05/03 09:50:23;;;;;;;;;;;;;;;14.99;25.69;101633.47;3540880;40;20429;-74
2021/05/03 09:53:04;;;;;;;5.00;3.10;;;;;;;15.33;24.53;101626.53;3540571;40;19938;-76
2021/05/03 09:55:35;;;;;;;5.07;3.67;;;;;;;15.40;24.01;101629.56;3542794;40;20042;-76
2021/05/03 09:58:11;;;;;;;4.03;2.70;;;;;;;15.49;23.75;101625.06;3539265;40;20062;-77
2021/05/03 10:00:40;;;;;;;4.30;2.83;;;;;;;15.49;24.24;101617.69;3537767;40;20145;-76
2021/05/03 10:03:31;;;;;;;5.35;3.05;;;;;;;15.56;23.96;101613.31;3539492;40;20059;-74
2021/05/03 10:05:59;;;;;;;4.72;3.00;;;;;;;15.58;24.13;101604.91;3541778;40;20055;-76
2021/05/03 10:08:28;;;;;;;4.97;2.70;;;;;;;15.64;23.84;101607.97;3538534;40;20454;-74
2021/05/03 10:10:58;;;;;;;4.03;2.63;;;;;;;15.69;23.99;101604.78;3542418;40;20039;-77
2021/05/03 10:13:26;;;;;;;5.28;2.67;;;;;;;15.73;24.19;101603.44;3542070;40;20419;-79
2021/05/03 10:15:55;;;;;;;4.95;3.03;;;;;;;15.82;23.39;101597.06;3546646;40;20050;-78
2021/05/03 10:18:25;;;;;;;3.95;2.78;;;;;;;15.86;23.50;101597.63;3539076;40;20404;-78
2021/05/03 10:20:53;;;;;;;5.28;2.95;;;;;;;15.90;23.54;101590.78;3542927;40;20412;-78
2021/05/03 10:23:23;;;;;;;3.80;2.85;;;;;;;15.95;23.15;101577.44;3538360;40;20324;-77
2021/05/03 10:25:56;;;;;;;5.30;3.00;;;;;;;16.04;22.21;101582.91;3548090;40;20063;-75
2021/05/03 10:28:23;;;;;;;4.18;3.10;;;;;;;16.03;22.91;101577.53;3532923;40;20058;-74
2021/05/03 10:30:55;;;;;;;4.57;2.85;;;;;;;16.08;22.40;101583.47;3533234;40;20051;-74
2021/05/03 10:33:34;;;;;;;4.20;2.88;;;;;;;16.14;22.22;101586.50;3526654;40;20062;-74
2021/05/03 10:36:02;;;;;;;5.20;3.13;;;;;;;16.12;22.09;101573.88;3540162;40;20310;-74
2021/05/03 10:38:36;;;;;;;5.15;2.88;;;;;;;16.15;21.97;101574.44;3539041;40;20058;-74
2021/05/03 10:41:23;;;;;;;5.45;2.88;;;;;;;16.16;22.26;101564.25;3537303;40;20069;-74
2021/05/03 10:43:52;;;;;;;5.13;3.22;;;;;;;16.16;21.98;101564.25;3540033;40;20145;-74
2021/05/03 10:49:39;;;;;;;4.57;2.97;;;;;;;16.17;21.98;101553.06;3530388;40;20133;-74
2021/05/03 10:52:12;;;;;;;4.38;3.10;;;;;;;16.18;21.68;101551.19;3536497;40;20412;-74
2021/05/03 10:54:47;;;;;;;4.43;3.10;;;;;;;16.19;22.34;101547.41;3540234;40;20066;-74
2021/05/03 10:57:59;;;;;;;4.80;3.38;;;;;;;16.15;22.05;101543.19;3541515;40;20385;-74
2021/05/03 11:01:05;;;;;;;5.60;3.20;;;;;;;16.23;22.04;101531.38;3500993;41;20064;-73
2021/05/03 11:04:06;;;;;;;5.78;3.70;;;;;;;16.28;22.00;101532.69;3507528;40;20056;-74
2021/05/03 11:07:09;;;;;;;4.85;3.33;;;;;;;16.30;22.33;101524.25;3531828;40;20419;-75
2021/05/03 11:09:41;;;;;;;6.13;4.03;;;;;;;16.33;21.94;101513.75;3537515;40;20058;-75
2021/05/03 11:12:29;;;;;;;5.28;3.40;;;;;;;16.36;21.71;101513.47;3540987;40;20396;-73
2021/05/03 11:15:19;;;;;;;4.95;3.63;;;;;;;16.43;21.83;101519.22;3541942;40;20050;-73
2021/05/03 11:18:18;;;;;;;5.97;3.90;;;;;;;16.46;21.59;101507.88;3542022;40;20178;-73
2021/05/03 11:21:10;;;;;;;5.22;3.22;;;;;;;16.50;22.39;101504.69;3538783;40;20043;-74
2021/05/03 11:23:42;;;;;;;6.07;3.78;;;;;;;16.48;22.22;101511.38;3529498;40;20061;-76
2021/05/03 11:26:26;;;;;;;5.68;3.63;;;;;;;16.51;21.78;101517.47;3539448;40;20050;-75
2021/05/03 11:29:04;;;;;;;5.45;3.97;;;;;;;16.49;21.30;101507.59;3537741;40;20320;-74
2021/05/03 11:31:33;;;;;;;5.47;4.07;;;;;;;16.45;21.57;101498.72;3532790;40;20043;-75
2021/05/03 11:34:07;;;;;;;6.40;3.60;;;;;;;16.45;21.75;101492.34;3542328;40;20408;-73
2021/05/03 11:36:38;;;;;;;5.07;3.30;;;;;;;16.39;21.37;101496.56;3541399;40;20282;-75
2021/05/03 11:39:15;;;;;;;4.85;3.70;;;;;;;16.41;21.40;101485.38;3539209;40;20443;-76
2021/05/03 11:42:00;;;;;;;5.03;3.75;;;;;;;16.38;21.33;101477.41;3537804;40;20604;-76
2021/05/03 11:44:48;;;;;;;4.57;3.13;;;;;;;16.38;21.37;101477.41;3531103;40;20145;-73
2021/05/03 11:47:16;;;;;;;5.00;4.00;;;;;;;16.34;21.45;101471.31;3533231;40;20039;-77
2021/05/03 11:49:45;;;;;;;4.47;3.33;;;;;;;16.32;21.52;101475.25;3541778;40;20082;-74
2021/05/03 11:52:13;;;;;;;4.72;3.60;;;;;;;16.29;21.00;101465.41;3550442;40;20078;-74
2021/05/03 11:54:42;;;;;;;4.78;3.38;;;;;;;16.27;21.25;101463.81;3541644;40;20148;-76
2021/05/03 11:57:14;;;;;;;5.03;3.05;;;;;;;16.24;21.17;101456.72;3543284;40;20043;-74
2021/05/03 11:59:41;;;;;;;5.35;3.58;;;;;;;16.21;21.57;101456.16;3542665;40;20515;-76
2021/05/03 12:02:12;;;;;;;4.72;3.67;;;;;;;16.21;20.88;101462.56;3535433;40;20288;-78
2021/05/03 12:04:46;;;;;;;5.40;3.25;;;;;;;16.17;20.64;101458.34;3538829;40;20051;-77
2021/05/03 12:07:15;;;;;;;5.15;3.17;;;;;;;16.13;21.02;101452.28;3541013;40;20054;-76
2021/05/03 12:09:43;;;;;;;4.75;2.88;;;;;;;16.11;21.21;101447.94;3533363;40;20399;-76
2021/05/03 12:12:11;;;;;;;5.22;3.28;;;;;;;16.10;21.26;101444.31;3541292;40;20270;-79